sensor_id;sensor_type;location;lat;lon;timestamp;P1;durP1;ratioP1;P2;durP2;ratioP2
68653;SDS011;55636;51.108;13.622;2023-11-18T00:00:45;2.80;;;2.60;;
68653;SDS011;55636;51.108;13.622;2023-11-18T00:01:47;3.93;;;2.60;;
68653;SDS011;55636;51.108;13.622;2023-11-18T00:02:50;2.60;;;2.40;;
68653;SDS011;55636;51.108;13.622;2023-11-18T00:03:53;2.77;;;2.50;;
68653;SDS011;55636;51.108;13.622;2023-11-18T00:04:57;2.63;;;2.30;;
68653;SDS011;55636;51.108;13.622;2023-11-18T00:06:00;3.03;;;2.50;;
68653;SDS011;55636;51.108;13.622;2023-11-18T00:07:03;2.40;;;2.20;;
68653;SDS011;55636;51.108;13.622;2023-11-18T00:08:06;2.80;;;2.47;;
68653;SDS011;55636;51.108;13.622;2023-11-18T00:09:12;2.40;;;2.20;;
68653;SDS011;55636;51.108;13.622;2023-11-18T00:10:15;2.60;;;2.40;;
68653;SDS011;55636;51.108;13.622;2023-11-18T00:11:19;2.50;;;2.30;;
68653;SDS011;55636;51.108;13.622;2023-11-18T00:12:22;2.40;;;2.20;;
68653;SDS011;55636;51.108;13.622;2023-11-18T00:13:26;2.73;;;2.33;;
68653;SDS011;55636;51.108;13.622;2023-11-18T00:14:29;2.43;;;2.23;;
68653;SDS011;55636;51.108;13.622;2023-11-18T00:15:32;2.60;;;2.40;;
68653;SDS011;55636;51.108;13.622;2023-11-18T00:16:37;2.30;;;2.10;;
68653;SDS011;55636;51.108;13.622;2023-11-18T00:17:41;2.67;;;2.47;;
68653;SDS011;55636;51.108;13.622;2023-11-18T00:18:45;2.53;;;2.33;;
68653;SDS011;55636;51.108;13.622;2023-11-18T00:19:48;4.70;;;2.30;;
68653;SDS011;55636;51.108;13.622;2023-11-18T00:20:51;3.63;;;2.40;;
68653;SDS011;55636;51.108;13.622;2023-11-18T00:21:54;2.83;;;2.30;;
68653;SDS011;55636;51.108;13.622;2023-11-18T00:22:57;2.47;;;2.13;;
68653;SDS011;55636;51.108;13.622;2023-11-18T00:23:59;2.37;;;2.17;;
68653;SDS011;55636;51.108;13.622;2023-11-18T00:25:02;2.20;;;2.00;;
68653;SDS011;55636;51.108;13.622;2023-11-18T00:26:07;2.20;;;2.00;;
68653;SDS011;55636;51.108;13.622;2023-11-18T00:27:10;2.50;;;2.13;;
68653;SDS011;55636;51.108;13.622;2023-11-18T00:28:13;2.40;;;2.20;;
68653;SDS011;55636;51.108;13.622;2023-11-18T00:29:15;3.00;;;2.20;;
68653;SDS011;55636;51.108;13.622;2023-11-18T00:30:17;2.30;;;2.10;;
68653;SDS011;55636;51.108;13.622;2023-11-18T00:31:20;2.30;;;2.10;;
68653;SDS011;55636;51.108;13.622;2023-11-18T00:32:22;2.67;;;2.20;;
68653;SDS011;55636;51.108;13.622;2023-11-18T00:33:25;2.23;;;2.03;;
68653;SDS011;55636;51.108;13.622;2023-11-18T00:34:28;2.03;;;1.87;;
68653;SDS011;55636;51.108;13.622;2023-11-18T00:35:31;2.30;;;2.10;;
68653;SDS011;55636;51.108;13.622;2023-11-18T00:36:35;2.30;;;2.07;;
68653;SDS011;55636;51.108;13.622;2023-11-18T00:37:38;2.20;;;2.00;;
68653;SDS011;55636;51.108;13.622;2023-11-18T00:38:41;2.40;;;2.20;;
68653;SDS011;55636;51.108;13.622;2023-11-18T00:39:43;1.97;;;1.87;;
68653;SDS011;55636;51.108;13.622;2023-11-18T00:40:46;2.47;;;2.27;;
68653;SDS011;55636;51.108;13.622;2023-11-18T00:41:49;2.47;;;2.27;;
68653;SDS011;55636;51.108;13.622;2023-11-18T00:42:51;2.37;;;2.17;;
68653;SDS011;55636;51.108;13.622;2023-11-18T00:43:54;2.00;;;1.90;;
68653;SDS011;55636;51.108;13.622;2023-11-18T00:44:56;2.40;;;2.20;;
68653;SDS011;55636;51.108;13.622;2023-11-18T00:45:59;2.50;;;2.30;;
68653;SDS011;55636;51.108;13.622;2023-11-18T00:47:01;2.43;;;2.23;;
68653;SDS011;55636;51.108;13.622;2023-11-18T00:48:05;2.50;;;2.30;;
68653;SDS011;55636;51.108;13.622;2023-11-18T00:49:07;2.40;;;2.20;;
68653;SDS011;55636;51.108;13.622;2023-11-18T00:50:10;2.60;;;2.40;;
68653;SDS011;55636;51.108;13.622;2023-11-18T00:51:12;2.57;;;2.30;;
68653;SDS011;55636;51.108;13.622;2023-11-18T00:52:15;2.43;;;2.23;;
68653;SDS011;55636;51.108;13.622;2023-11-18T00:53:17;2.70;;;2.23;;
68653;SDS011;55636;51.108;13.622;2023-11-18T00:54:21;2.43;;;2.23;;
68653;SDS011;55636;51.108;13.622;2023-11-18T00:55:25;2.63;;;2.43;;
68653;SDS011;55636;51.108;13.622;2023-11-18T00:56:27;2.60;;;2.40;;
68653;SDS011;55636;51.108;13.622;2023-11-18T00:57:31;2.73;;;2.53;;
68653;SDS011;55636;51.108;13.622;2023-11-18T00:58:33;2.80;;;2.50;;
68653;SDS011;55636;51.108;13.622;2023-11-18T00:59:41;3.87;;;2.30;;
68653;SDS011;55636;51.108;13.622;2023-11-18T01:00:45;2.40;;;2.20;;
68653;SDS011;55636;51.108;13.622;2023-11-18T01:01:47;2.60;;;2.30;;
68653;SDS011;55636;51.108;13.622;2023-11-18T01:02:51;3.10;;;2.37;;
68653;SDS011;55636;51.108;13.622;2023-11-18T01:03:56;2.67;;;2.47;;
68653;SDS011;55636;51.108;13.622;2023-11-18T01:05:01;2.93;;;2.63;;
68653;SDS011;55636;51.108;13.622;2023-11-18T01:06:04;2.50;;;2.30;;
68653;SDS011;55636;51.108;13.622;2023-11-18T01:07:08;2.50;;;2.30;;
68653;SDS011;55636;51.108;13.622;2023-11-18T01:08:11;3.70;;;2.33;;
68653;SDS011;55636;51.108;13.622;2023-11-18T01:09:13;2.70;;;2.50;;
68653;SDS011;55636;51.108;13.622;2023-11-18T01:10:18;2.73;;;2.50;;
68653;SDS011;55636;51.108;13.622;2023-11-18T01:11:21;3.03;;;2.43;;
68653;SDS011;55636;51.108;13.622;2023-11-18T01:12:26;2.23;;;2.13;;
68653;SDS011;55636;51.108;13.622;2023-11-18T01:13:29;2.43;;;2.23;;
68653;SDS011;55636;51.108;13.622;2023-11-18T01:14:31;2.70;;;2.50;;
68653;SDS011;55636;51.108;13.622;2023-11-18T01:15:34;2.57;;;2.37;;
68653;SDS011;55636;51.108;13.622;2023-11-18T01:16:36;2.90;;;2.70;;
68653;SDS011;55636;51.108;13.622;2023-11-18T01:17:39;2.50;;;2.30;;
68653;SDS011;55636;51.108;13.622;2023-11-18T01:18:42;2.87;;;2.60;;
68653;SDS011;55636;51.108;13.622;2023-11-18T01:19:45;2.83;;;2.57;;
68653;SDS011;55636;51.108;13.622;2023-11-18T01:20:48;2.77;;;2.53;;
68653;SDS011;55636;51.108;13.622;2023-11-18T01:21:50;2.57;;;2.33;;
68653;SDS011;55636;51.108;13.622;2023-11-18T01:22:55;2.50;;;2.30;;
68653;SDS011;55636;51.108;13.622;2023-11-18T01:23:57;3.07;;;2.53;;
68653;SDS011;55636;51.108;13.622;2023-11-18T01:25:00;3.00;;;2.20;;
68653;SDS011;55636;51.108;13.622;2023-11-18T01:26:03;2.57;;;2.37;;
68653;SDS011;55636;51.108;13.622;2023-11-18T01:27:10;2.40;;;2.20;;
68653;SDS011;55636;51.108;13.622;2023-11-18T01:28:13;3.13;;;2.57;;
68653;SDS011;55636;51.108;13.622;2023-11-18T01:29:18;2.53;;;2.33;;
68653;SDS011;55636;51.108;13.622;2023-11-18T01:30:20;2.93;;;2.63;;
68653;SDS011;55636;51.108;13.622;2023-11-18T01:31:23;2.30;;;2.10;;
68653;SDS011;55636;51.108;13.622;2023-11-18T01:32:25;2.37;;;2.17;;
68653;SDS011;55636;51.108;13.622;2023-11-18T01:33:28;2.40;;;2.20;;
68653;SDS011;55636;51.108;13.622;2023-11-18T01:34:32;2.50;;;2.30;;
68653;SDS011;55636;51.108;13.622;2023-11-18T01:35:36;2.40;;;2.20;;
68653;SDS011;55636;51.108;13.622;2023-11-18T01:36:39;2.50;;;2.30;;
68653;SDS011;55636;51.108;13.622;2023-11-18T01:37:41;2.63;;;2.43;;
68653;SDS011;55636;51.108;13.622;2023-11-18T01:38:44;2.40;;;2.20;;
68653;SDS011;55636;51.108;13.622;2023-11-18T01:39:46;3.00;;;2.27;;
68653;SDS011;55636;51.108;13.622;2023-11-18T01:40:48;2.50;;;2.30;;
68653;SDS011;55636;51.108;13.622;2023-11-18T01:41:51;2.60;;;2.40;;
68653;SDS011;55636;51.108;13.622;2023-11-18T01:42:53;2.57;;;2.33;;
68653;SDS011;55636;51.108;13.622;2023-11-18T01:43:56;2.63;;;2.43;;
68653;SDS011;55636;51.108;13.622;2023-11-18T01:44:59;2.30;;;2.10;;
68653;SDS011;55636;51.108;13.622;2023-11-18T01:46:07;2.27;;;2.00;;
68653;SDS011;55636;51.108;13.622;2023-11-18T01:47:12;2.83;;;2.50;;
68653;SDS011;55636;51.108;13.622;2023-11-18T01:48:16;2.40;;;2.20;;
68653;SDS011;55636;51.108;13.622;2023-11-18T01:49:19;2.30;;;2.10;;
68653;SDS011;55636;51.108;13.622;2023-11-18T01:50:22;2.87;;;2.47;;
68653;SDS011;55636;51.108;13.622;2023-11-18T01:51:25;2.57;;;2.20;;
68653;SDS011;55636;51.108;13.622;2023-11-18T01:52:28;2.63;;;2.43;;
68653;SDS011;55636;51.108;13.622;2023-11-18T01:53:32;2.27;;;2.10;;
68653;SDS011;55636;51.108;13.622;2023-11-18T01:54:38;2.40;;;2.20;;
68653;SDS011;55636;51.108;13.622;2023-11-18T01:55:42;2.50;;;2.30;;
68653;SDS011;55636;51.108;13.622;2023-11-18T01:56:46;2.33;;;2.13;;
68653;SDS011;55636;51.108;13.622;2023-11-18T01:57:49;2.70;;;2.40;;
68653;SDS011;55636;51.108;13.622;2023-11-18T01:58:53;2.80;;;2.60;;
68653;SDS011;55636;51.108;13.622;2023-11-18T01:59:55;2.97;;;2.30;;
68653;SDS011;55636;51.108;13.622;2023-11-18T02:00:58;2.90;;;2.70;;
68653;SDS011;55636;51.108;13.622;2023-11-18T02:02:01;3.40;;;2.53;;
68653;SDS011;55636;51.108;13.622;2023-11-18T02:03:05;2.67;;;2.47;;
68653;SDS011;55636;51.108;13.622;2023-11-18T02:04:08;2.73;;;2.43;;
68653;SDS011;55636;51.108;13.622;2023-11-18T02:05:12;2.33;;;2.13;;
68653;SDS011;55636;51.108;13.622;2023-11-18T02:06:15;3.03;;;2.60;;
68653;SDS011;55636;51.108;13.622;2023-11-18T02:07:18;2.67;;;2.47;;
68653;SDS011;55636;51.108;13.622;2023-11-18T02:08:21;2.90;;;2.63;;
68653;SDS011;55636;51.108;13.622;2023-11-18T02:09:24;2.50;;;2.27;;
68653;SDS011;55636;51.108;13.622;2023-11-18T02:10:32;2.60;;;2.40;;
68653;SDS011;55636;51.108;13.622;2023-11-18T02:11:36;2.50;;;2.30;;
68653;SDS011;55636;51.108;13.622;2023-11-18T02:12:46;2.73;;;2.50;;
68653;SDS011;55636;51.108;13.622;2023-11-18T02:13:55;2.97;;;2.70;;
68653;SDS011;55636;51.108;13.622;2023-11-18T02:15:02;2.77;;;2.57;;
68653;SDS011;55636;51.108;13.622;2023-11-18T02:16:12;2.80;;;2.50;;
68653;SDS011;55636;51.108;13.622;2023-11-18T02:17:18;3.10;;;2.60;;
68653;SDS011;55636;51.108;13.622;2023-11-18T02:18:27;2.93;;;2.57;;
68653;SDS011;55636;51.108;13.622;2023-11-18T02:19:31;3.50;;;2.53;;
68653;SDS011;55636;51.108;13.622;2023-11-18T02:20:37;3.07;;;2.67;;
68653;SDS011;55636;51.108;13.622;2023-11-18T02:21:41;3.30;;;2.60;;
68653;SDS011;55636;51.108;13.622;2023-11-18T02:22:44;2.83;;;2.60;;
68653;SDS011;55636;51.108;13.622;2023-11-18T02:23:51;2.60;;;2.40;;
68653;SDS011;55636;51.108;13.622;2023-11-18T02:24:54;2.80;;;2.60;;
68653;SDS011;55636;51.108;13.622;2023-11-18T02:25:57;2.93;;;2.67;;
68653;SDS011;55636;51.108;13.622;2023-11-18T02:27:00;3.03;;;2.73;;
68653;SDS011;55636;51.108;13.622;2023-11-18T02:28:03;2.73;;;2.50;;
68653;SDS011;55636;51.108;13.622;2023-11-18T02:29:05;2.70;;;2.50;;
68653;SDS011;55636;51.108;13.622;2023-11-18T02:30:08;3.00;;;2.70;;
68653;SDS011;55636;51.108;13.622;2023-11-18T02:31:15;3.00;;;2.70;;
68653;SDS011;55636;51.108;13.622;2023-11-18T02:32:33;2.83;;;2.57;;
68653;SDS011;55636;51.108;13.622;2023-11-18T02:36:20;2.87;;;2.60;;
68653;SDS011;55636;51.108;13.622;2023-11-18T02:37:30;3.10;;;2.70;;
68653;SDS011;55636;51.108;13.622;2023-11-18T02:38:35;2.90;;;2.60;;
68653;SDS011;55636;51.108;13.622;2023-11-18T02:39:48;4.23;;;2.60;;
68653;SDS011;55636;51.108;13.622;2023-11-18T02:40:54;2.83;;;2.57;;
68653;SDS011;55636;51.108;13.622;2023-11-18T02:42:01;3.07;;;2.77;;
68653;SDS011;55636;51.108;13.622;2023-11-18T02:43:05;3.30;;;3.00;;
68653;SDS011;55636;51.108;13.622;2023-11-18T02:44:08;3.03;;;2.73;;
68653;SDS011;55636;51.108;13.622;2023-11-18T02:45:13;2.93;;;2.50;;
68653;SDS011;55636;51.108;13.622;2023-11-18T02:46:19;3.00;;;2.70;;
68653;SDS011;55636;51.108;13.622;2023-11-18T02:47:24;2.80;;;2.60;;
68653;SDS011;55636;51.108;13.622;2023-11-18T02:48:27;3.30;;;2.73;;
68653;SDS011;55636;51.108;13.622;2023-11-18T02:49:31;3.03;;;2.37;;
68653;SDS011;55636;51.108;13.622;2023-11-18T02:50:36;3.53;;;2.70;;
68653;SDS011;55636;51.108;13.622;2023-11-18T02:51:40;2.90;;;2.70;;
68653;SDS011;55636;51.108;13.622;2023-11-18T02:52:42;3.03;;;2.73;;
68653;SDS011;55636;51.108;13.622;2023-11-18T02:53:44;2.70;;;2.50;;
68653;SDS011;55636;51.108;13.622;2023-11-18T02:54:47;3.43;;;2.93;;
68653;SDS011;55636;51.108;13.622;2023-11-18T02:55:50;3.10;;;2.80;;
68653;SDS011;55636;51.108;13.622;2023-11-18T02:56:54;2.80;;;2.60;;
68653;SDS011;55636;51.108;13.622;2023-11-18T02:57:57;3.97;;;2.70;;
68653;SDS011;55636;51.108;13.622;2023-11-18T02:58:59;2.77;;;2.53;;
68653;SDS011;55636;51.108;13.622;2023-11-18T03:00:03;3.10;;;2.80;;
68653;SDS011;55636;51.108;13.622;2023-11-18T03:01:06;3.30;;;3.00;;
68653;SDS011;55636;51.108;13.622;2023-11-18T03:02:09;3.33;;;3.00;;
68653;SDS011;55636;51.108;13.622;2023-11-18T03:03:12;3.03;;;2.73;;
68653;SDS011;55636;51.108;13.622;2023-11-18T03:04:17;2.97;;;2.70;;
68653;SDS011;55636;51.108;13.622;2023-11-18T03:05:21;2.87;;;2.60;;
68653;SDS011;55636;51.108;13.622;2023-11-18T03:06:24;3.00;;;2.70;;
68653;SDS011;55636;51.108;13.622;2023-11-18T03:07:27;3.17;;;2.87;;
68653;SDS011;55636;51.108;13.622;2023-11-18T03:08:30;2.97;;;2.77;;
68653;SDS011;55636;51.108;13.622;2023-11-18T03:09:33;3.30;;;3.00;;
68653;SDS011;55636;51.108;13.622;2023-11-18T03:10:37;3.10;;;2.80;;
68653;SDS011;55636;51.108;13.622;2023-11-18T03:11:40;3.27;;;2.97;;
68653;SDS011;55636;51.108;13.622;2023-11-18T03:12:42;2.73;;;2.53;;
68653;SDS011;55636;51.108;13.622;2023-11-18T03:13:46;3.33;;;2.97;;
68653;SDS011;55636;51.108;13.622;2023-11-18T03:14:49;3.37;;;3.07;;
68653;SDS011;55636;51.108;13.622;2023-11-18T03:15:51;3.33;;;3.03;;
68653;SDS011;55636;51.108;13.622;2023-11-18T03:16:54;2.93;;;2.63;;
68653;SDS011;55636;51.108;13.622;2023-11-18T03:17:57;3.07;;;2.77;;
68653;SDS011;55636;51.108;13.622;2023-11-18T03:19:00;3.07;;;2.77;;
68653;SDS011;55636;51.108;13.622;2023-11-18T03:20:03;2.87;;;2.67;;
68653;SDS011;55636;51.108;13.622;2023-11-18T03:21:11;3.10;;;2.80;;
68653;SDS011;55636;51.108;13.622;2023-11-18T03:22:14;3.07;;;2.77;;
68653;SDS011;55636;51.108;13.622;2023-11-18T03:23:17;3.60;;;3.00;;
68653;SDS011;55636;51.108;13.622;2023-11-18T03:24:19;3.13;;;2.83;;
68653;SDS011;55636;51.108;13.622;2023-11-18T03:25:22;4.37;;;3.07;;
68653;SDS011;55636;51.108;13.622;2023-11-18T03:26:24;3.20;;;2.90;;
68653;SDS011;55636;51.108;13.622;2023-11-18T03:27:28;3.20;;;2.90;;
68653;SDS011;55636;51.108;13.622;2023-11-18T03:28:31;4.77;;;3.17;;
68653;SDS011;55636;51.108;13.622;2023-11-18T03:29:34;3.47;;;3.00;;
68653;SDS011;55636;51.108;13.622;2023-11-18T03:30:36;3.60;;;3.30;;
68653;SDS011;55636;51.108;13.622;2023-11-18T03:31:40;3.27;;;2.97;;
68653;SDS011;55636;51.108;13.622;2023-11-18T03:32:43;3.07;;;2.80;;
68653;SDS011;55636;51.108;13.622;2023-11-18T03:33:45;3.20;;;2.90;;
68653;SDS011;55636;51.108;13.622;2023-11-18T03:34:48;3.10;;;2.77;;
68653;SDS011;55636;51.108;13.622;2023-11-18T03:35:51;4.83;;;3.10;;
68653;SDS011;55636;51.108;13.622;2023-11-18T03:36:53;3.80;;;3.10;;
68653;SDS011;55636;51.108;13.622;2023-11-18T03:37:59;2.90;;;2.70;;
68653;SDS011;55636;51.108;13.622;2023-11-18T03:39:01;3.10;;;2.80;;
68653;SDS011;55636;51.108;13.622;2023-11-18T03:40:06;3.17;;;2.90;;
68653;SDS011;55636;51.108;13.622;2023-11-18T03:41:11;3.30;;;3.00;;
68653;SDS011;55636;51.108;13.622;2023-11-18T03:42:15;3.23;;;2.93;;
68653;SDS011;55636;51.108;13.622;2023-11-18T03:43:18;3.13;;;2.87;;
68653;SDS011;55636;51.108;13.622;2023-11-18T03:44:22;3.33;;;3.03;;
68653;SDS011;55636;51.108;13.622;2023-11-18T03:45:26;2.93;;;2.73;;
68653;SDS011;55636;51.108;13.622;2023-11-18T03:46:28;3.10;;;2.80;;
68653;SDS011;55636;51.108;13.622;2023-11-18T03:47:37;3.60;;;2.97;;
68653;SDS011;55636;51.108;13.622;2023-11-18T03:48:39;3.10;;;2.60;;
68653;SDS011;55636;51.108;13.622;2023-11-18T03:49:43;3.33;;;3.03;;
68653;SDS011;55636;51.108;13.622;2023-11-18T03:50:45;3.17;;;2.80;;
68653;SDS011;55636;51.108;13.622;2023-11-18T03:51:48;3.03;;;2.83;;
68653;SDS011;55636;51.108;13.622;2023-11-18T03:52:51;3.43;;;2.90;;
68653;SDS011;55636;51.108;13.622;2023-11-18T03:53:54;3.60;;;3.10;;
68653;SDS011;55636;51.108;13.622;2023-11-18T03:54:58;3.23;;;2.93;;
68653;SDS011;55636;51.108;13.622;2023-11-18T03:56:00;2.97;;;2.67;;
68653;SDS011;55636;51.108;13.622;2023-11-18T03:57:04;3.13;;;2.80;;
68653;SDS011;55636;51.108;13.622;2023-11-18T03:58:08;2.83;;;2.63;;
68653;SDS011;55636;51.108;13.622;2023-11-18T03:59:11;3.23;;;2.93;;
68653;SDS011;55636;51.108;13.622;2023-11-18T04:00:16;3.57;;;2.87;;
68653;SDS011;55636;51.108;13.622;2023-11-18T04:01:20;3.23;;;2.93;;
68653;SDS011;55636;51.108;13.622;2023-11-18T04:02:24;3.37;;;3.07;;
68653;SDS011;55636;51.108;13.622;2023-11-18T04:03:27;3.10;;;2.80;;
68653;SDS011;55636;51.108;13.622;2023-11-18T04:04:29;3.47;;;3.10;;
68653;SDS011;55636;51.108;13.622;2023-11-18T04:05:33;3.30;;;3.00;;
68653;SDS011;55636;51.108;13.622;2023-11-18T04:06:37;3.30;;;3.00;;
68653;SDS011;55636;51.108;13.622;2023-11-18T04:07:39;3.40;;;3.10;;
68653;SDS011;55636;51.108;13.622;2023-11-18T04:08:44;3.43;;;3.13;;
68653;SDS011;55636;51.108;13.622;2023-11-18T04:09:47;3.97;;;3.30;;
68653;SDS011;55636;51.108;13.622;2023-11-18T04:10:50;3.70;;;3.13;;
68653;SDS011;55636;51.108;13.622;2023-11-18T04:11:52;4.73;;;3.30;;
68653;SDS011;55636;51.108;13.622;2023-11-18T04:12:55;3.60;;;3.03;;
68653;SDS011;55636;51.108;13.622;2023-11-18T04:13:57;3.50;;;3.10;;
68653;SDS011;55636;51.108;13.622;2023-11-18T04:15:00;3.50;;;3.20;;
68653;SDS011;55636;51.108;13.622;2023-11-18T04:16:04;3.30;;;3.00;;
68653;SDS011;55636;51.108;13.622;2023-11-18T04:17:06;3.63;;;3.20;;
68653;SDS011;55636;51.108;13.622;2023-11-18T04:18:09;3.10;;;2.70;;
68653;SDS011;55636;51.108;13.622;2023-11-18T04:19:12;3.30;;;3.00;;
68653;SDS011;55636;51.108;13.622;2023-11-18T04:20:15;3.60;;;3.03;;
68653;SDS011;55636;51.108;13.622;2023-11-18T04:21:19;3.47;;;3.17;;
68653;SDS011;55636;51.108;13.622;2023-11-18T04:22:21;3.30;;;3.00;;
68653;SDS011;55636;51.108;13.622;2023-11-18T04:23:25;3.77;;;3.20;;
68653;SDS011;55636;51.108;13.622;2023-11-18T04:24:28;3.47;;;3.17;;
68653;SDS011;55636;51.108;13.622;2023-11-18T04:25:30;3.40;;;3.10;;
68653;SDS011;55636;51.108;13.622;2023-11-18T04:26:33;3.73;;;3.43;;
68653;SDS011;55636;51.108;13.622;2023-11-18T04:27:36;3.47;;;3.17;;
68653;SDS011;55636;51.108;13.622;2023-11-18T04:28:39;3.50;;;3.20;;
68653;SDS011;55636;51.108;13.622;2023-11-18T04:29:41;3.50;;;3.20;;
68653;SDS011;55636;51.108;13.622;2023-11-18T04:30:44;4.80;;;3.03;;
68653;SDS011;55636;51.108;13.622;2023-11-18T04:31:46;3.23;;;2.93;;
68653;SDS011;55636;51.108;13.622;2023-11-18T04:32:49;3.60;;;3.30;;
68653;SDS011;55636;51.108;13.622;2023-11-18T04:33:54;3.37;;;3.07;;
68653;SDS011;55636;51.108;13.622;2023-11-18T04:34:58;4.03;;;3.03;;
68653;SDS011;55636;51.108;13.622;2023-11-18T04:36:02;3.67;;;3.30;;
68653;SDS011;55636;51.108;13.622;2023-11-18T04:37:08;3.37;;;3.07;;
68653;SDS011;55636;51.108;13.622;2023-11-18T04:38:10;2.93;;;2.70;;
68653;SDS011;55636;51.108;13.622;2023-11-18T04:39:13;4.67;;;3.10;;
68653;SDS011;55636;51.108;13.622;2023-11-18T04:40:18;3.57;;;3.27;;
68653;SDS011;55636;51.108;13.622;2023-11-18T04:41:20;4.77;;;3.20;;
68653;SDS011;55636;51.108;13.622;2023-11-18T04:42:23;3.50;;;3.10;;
68653;SDS011;55636;51.108;13.622;2023-11-18T04:43:25;4.43;;;3.60;;
68653;SDS011;55636;51.108;13.622;2023-11-18T04:44:43;3.87;;;3.47;;
68653;SDS011;55636;51.108;13.622;2023-11-18T04:45:45;3.60;;;3.23;;
68653;SDS011;55636;51.108;13.622;2023-11-18T04:46:48;3.47;;;3.17;;
68653;SDS011;55636;51.108;13.622;2023-11-18T04:47:53;3.90;;;3.50;;
68653;SDS011;55636;51.108;13.622;2023-11-18T04:48:57;3.87;;;3.47;;
68653;SDS011;55636;51.108;13.622;2023-11-18T04:50:02;3.93;;;3.23;;
68653;SDS011;55636;51.108;13.622;2023-11-18T04:51:06;3.93;;;3.37;;
68653;SDS011;55636;51.108;13.622;2023-11-18T04:52:08;3.40;;;3.10;;
68653;SDS011;55636;51.108;13.622;2023-11-18T04:53:11;3.40;;;3.10;;
68653;SDS011;55636;51.108;13.622;2023-11-18T04:54:13;3.87;;;3.20;;
68653;SDS011;55636;51.108;13.622;2023-11-18T04:55:16;3.53;;;3.23;;
68653;SDS011;55636;51.108;13.622;2023-11-18T04:56:18;4.03;;;3.63;;
68653;SDS011;55636;51.108;13.622;2023-11-18T04:57:21;3.40;;;3.10;;
68653;SDS011;55636;51.108;13.622;2023-11-18T04:58:23;3.40;;;3.10;;
68653;SDS011;55636;51.108;13.622;2023-11-18T04:59:26;4.03;;;3.53;;
68653;SDS011;55636;51.108;13.622;2023-11-18T05:00:30;3.80;;;3.30;;
68653;SDS011;55636;51.108;13.622;2023-11-18T05:01:33;3.67;;;3.37;;
68653;SDS011;55636;51.108;13.622;2023-11-18T05:02:39;3.80;;;3.30;;
68653;SDS011;55636;51.108;13.622;2023-11-18T05:03:42;3.30;;;3.00;;
68653;SDS011;55636;51.108;13.622;2023-11-18T05:04:45;3.40;;;3.10;;
68653;SDS011;55636;51.108;13.622;2023-11-18T05:05:47;3.73;;;3.40;;
68653;SDS011;55636;51.108;13.622;2023-11-18T05:06:50;3.87;;;3.47;;
68653;SDS011;55636;51.108;13.622;2023-11-18T05:07:53;3.40;;;3.10;;
68653;SDS011;55636;51.108;13.622;2023-11-18T05:08:55;3.30;;;3.00;;
68653;SDS011;55636;51.108;13.622;2023-11-18T05:09:59;3.37;;;3.07;;
68653;SDS011;55636;51.108;13.622;2023-11-18T05:11:02;3.13;;;2.83;;
68653;SDS011;55636;51.108;13.622;2023-11-18T05:12:07;3.60;;;3.30;;
68653;SDS011;55636;51.108;13.622;2023-11-18T05:13:11;3.73;;;3.30;;
68653;SDS011;55636;51.108;13.622;2023-11-18T05:14:17;3.83;;;3.17;;
68653;SDS011;55636;51.108;13.622;2023-11-18T05:15:21;3.13;;;2.90;;
68653;SDS011;55636;51.108;13.622;2023-11-18T05:16:27;3.40;;;3.10;;
68653;SDS011;55636;51.108;13.622;2023-11-18T05:17:29;4.30;;;3.37;;
68653;SDS011;55636;51.108;13.622;2023-11-18T05:18:32;3.50;;;3.20;;
68653;SDS011;55636;51.108;13.622;2023-11-18T05:19:38;3.23;;;2.93;;
68653;SDS011;55636;51.108;13.622;2023-11-18T05:20:41;3.20;;;2.93;;
68653;SDS011;55636;51.108;13.622;2023-11-18T05:21:44;3.57;;;3.10;;
68653;SDS011;55636;51.108;13.622;2023-11-18T05:22:51;4.20;;;3.10;;
68653;SDS011;55636;51.108;13.622;2023-11-18T05:23:54;3.40;;;3.10;;
68653;SDS011;55636;51.108;13.622;2023-11-18T05:24:57;3.53;;;3.23;;
68653;SDS011;55636;51.108;13.622;2023-11-18T05:26:01;3.60;;;3.30;;
68653;SDS011;55636;51.108;13.622;2023-11-18T05:27:06;3.80;;;3.40;;
68653;SDS011;55636;51.108;13.622;2023-11-18T05:28:09;3.40;;;3.10;;
68653;SDS011;55636;51.108;13.622;2023-11-18T05:29:12;3.90;;;3.20;;
68653;SDS011;55636;51.108;13.622;2023-11-18T05:30:18;3.90;;;3.03;;
68653;SDS011;55636;51.108;13.622;2023-11-18T05:31:21;3.73;;;3.37;;
68653;SDS011;55636;51.108;13.622;2023-11-18T05:32:23;3.93;;;2.97;;
68653;SDS011;55636;51.108;13.622;2023-11-18T05:33:29;4.97;;;3.00;;
68653;SDS011;55636;51.108;13.622;2023-11-18T05:34:32;3.60;;;3.30;;
68653;SDS011;55636;51.108;13.622;2023-11-18T05:35:34;3.67;;;3.20;;
68653;SDS011;55636;51.108;13.622;2023-11-18T05:36:38;3.43;;;3.13;;
68653;SDS011;55636;51.108;13.622;2023-11-18T05:37:42;3.70;;;3.40;;
68653;SDS011;55636;51.108;13.622;2023-11-18T05:38:45;3.60;;;3.30;;
68653;SDS011;55636;51.108;13.622;2023-11-18T05:39:49;3.43;;;3.13;;
68653;SDS011;55636;51.108;13.622;2023-11-18T05:41:01;3.47;;;3.17;;
68653;SDS011;55636;51.108;13.622;2023-11-18T05:42:05;3.50;;;3.20;;
68653;SDS011;55636;51.108;13.622;2023-11-18T05:43:08;3.57;;;3.27;;
68653;SDS011;55636;51.108;13.622;2023-11-18T05:44:18;3.60;;;3.30;;
68653;SDS011;55636;51.108;13.622;2023-11-18T05:45:22;3.63;;;3.20;;
68653;SDS011;55636;51.108;13.622;2023-11-18T05:46:35;3.43;;;3.13;;
68653;SDS011;55636;51.108;13.622;2023-11-18T05:47:38;3.90;;;3.23;;
68653;SDS011;55636;51.108;13.622;2023-11-18T05:48:41;4.53;;;3.50;;
68653;SDS011;55636;51.108;13.622;2023-11-18T05:49:45;4.43;;;3.10;;
68653;SDS011;55636;51.108;13.622;2023-11-18T05:50:48;3.67;;;3.37;;
68653;SDS011;55636;51.108;13.622;2023-11-18T05:51:51;3.97;;;3.40;;
68653;SDS011;55636;51.108;13.622;2023-11-18T05:52:54;3.90;;;3.57;;
68653;SDS011;55636;51.108;13.622;2023-11-18T05:53:57;3.90;;;3.47;;
68653;SDS011;55636;51.108;13.622;2023-11-18T05:54:59;3.77;;;3.40;;
68653;SDS011;55636;51.108;13.622;2023-11-18T05:56:02;3.80;;;3.50;;
68653;SDS011;55636;51.108;13.622;2023-11-18T05:57:06;4.07;;;3.67;;
68653;SDS011;55636;51.108;13.622;2023-11-18T05:58:08;3.60;;;3.30;;
68653;SDS011;55636;51.108;13.622;2023-11-18T05:59:12;3.70;;;3.40;;
68653;SDS011;55636;51.108;13.622;2023-11-18T06:00:16;4.20;;;3.67;;
68653;SDS011;55636;51.108;13.622;2023-11-18T06:01:31;3.87;;;3.50;;
68653;SDS011;55636;51.108;13.622;2023-11-18T06:02:34;3.97;;;3.57;;
68653;SDS011;55636;51.108;13.622;2023-11-18T06:03:38;3.43;;;3.13;;
68653;SDS011;55636;51.108;13.622;2023-11-18T06:04:42;4.07;;;3.60;;
68653;SDS011;55636;51.108;13.622;2023-11-18T06:05:47;3.80;;;3.50;;
68653;SDS011;55636;51.108;13.622;2023-11-18T06:06:49;3.77;;;3.33;;
68653;SDS011;55636;51.108;13.622;2023-11-18T06:07:54;4.00;;;3.53;;
68653;SDS011;55636;51.108;13.622;2023-11-18T06:08:56;5.70;;;3.90;;
68653;SDS011;55636;51.108;13.622;2023-11-18T06:10:01;3.77;;;3.47;;
68653;SDS011;55636;51.108;13.622;2023-11-18T06:11:07;3.80;;;3.37;;
68653;SDS011;55636;51.108;13.622;2023-11-18T06:12:17;4.03;;;3.63;;
68653;SDS011;55636;51.108;13.622;2023-11-18T06:13:19;3.70;;;3.40;;
68653;SDS011;55636;51.108;13.622;2023-11-18T06:14:22;3.73;;;3.37;;
68653;SDS011;55636;51.108;13.622;2023-11-18T06:15:25;4.00;;;3.60;;
68653;SDS011;55636;51.108;13.622;2023-11-18T06:16:27;3.60;;;3.30;;
68653;SDS011;55636;51.108;13.622;2023-11-18T06:17:30;3.97;;;3.53;;
68653;SDS011;55636;51.108;13.622;2023-11-18T06:18:33;4.00;;;3.43;;
68653;SDS011;55636;51.108;13.622;2023-11-18T06:19:38;4.40;;;4.00;;
68653;SDS011;55636;51.108;13.622;2023-11-18T06:20:41;3.90;;;3.50;;